| time (UTC) | temp F | wind direction | speed MPH | gust MPH | rain 1hr in | rain 24hr in | rain mn in | humidity % | barometer mb |
| 20260510130303 | 67 | 315 | 1.0 | 3.0 | 0.00 | 0.00 | 0.00 | 90 | 1003.8 |
| 20260510125804 | 67 | 219 | 1.0 | 6.0 | 0.00 | 0.00 | 0.00 | 91 | 1003.9 |
| 20260510125306 | 67 | 207 | 2.0 | 7.0 | 0.00 | 0.00 | 0.00 | 92 | 1003.9 |
| 20260510124803 | 66 | 204 | 5.0 | 9.0 | 0.00 | 0.00 | 0.00 | 92 | 1003.9 |
| 20260510122306 | 64 | 143 | 1.0 | 2.0 | 0.00 | 0.00 | 0.00 | 94 | 1003.6 |
| 20260510121804 | 63 | 108 | 1.0 | 3.0 | 0.00 | 0.00 | 0.00 | 95 | 1003.6 |
| 20260510115306 | 61 | 132 | 0.0 | 1.0 | 0.00 | 0.00 | 0.00 | 97 | 1003.6 |
| 20260510114803 | 60 | 139 | 0.0 | 1.0 | 0.00 | 0.00 | 0.00 | 97 | 1003.5 |
| 20260510114304 | 60 | 160 | 0.0 | 2.0 | 0.00 | 0.00 | 0.00 | 97 | 1003.4 |
| 20260510111304 | 60 | 132 | 1.0 | 2.0 | 0.00 | 0.00 | 0.00 | 96 | 1003.0 |
| 20260510110304 | 60 | 155 | 0.0 | 2.0 | 0.00 | 0.00 | 0.00 | 96 | 1003.0 |
| 20260510105803 | 60 | 131 | 1.0 | 2.0 | 0.00 | 0.00 | 0.00 | 96 | 1002.9 |
| 20260510104803 | 60 | 121 | 0.0 | 2.0 | 0.00 | 0.00 | 0.00 | 96 | 1002.6 |
| 20260510104305 | 60 | 208 | 1.0 | 2.0 | 0.00 | 0.00 | 0.00 | 96 | 1002.5 |
| 20260510103805 | 60 | 188 | 0.0 | 2.0 | 0.00 | 0.00 | 0.00 | 96 | 1002.6 |
| 20260510103304 | 60 | 153 | 1.0 | 2.0 | 0.00 | 0.00 | 0.00 | 96 | 1002.4 |
| 20260510102804 | 60 | 139 | 1.0 | 3.0 | 0.00 | 0.00 | 0.00 | 96 | 1002.4 |
| 20260510102306 | 60 | 109 | 0.0 | 2.0 | 0.00 | 0.00 | 0.00 | 96 | 1002.3 |
| 20260510101804 | 60 | 119 | 1.0 | 2.0 | 0.00 | 0.00 | 0.00 | 96 | 1002.3 |
| 20260510101305 | 60 | 124 | 0.0 | 2.0 | 0.00 | 0.00 | 0.00 | 96 | 1002.2 |
| 20260510095306 | 60 | 106 | 0.0 | 1.0 | 0.00 | 0.00 | 0.00 | 94 | 1002.1 |
| 20260510094804 | 60 | 82 | 0.0 | 2.0 | 0.00 | 0.00 | 0.00 | 94 | 1002.0 |
| 20260510094304 | 60 | 122 | 0.0 | 2.0 | 0.00 | 0.00 | 0.00 | 94 | 1002.0 |
| 20260510093304 | 60 | 171 | 0.0 | 1.0 | 0.00 | 0.00 | 0.00 | 94 | 1001.9 |
| 20260510092803 | 60 | 249 | 0.0 | 1.0 | 0.00 | 0.00 | 0.00 | 94 | 1001.8 |
| 20260510092306 | 60 | 145 | 0.0 | 2.0 | 0.00 | 0.00 | 0.00 | 93 | 1001.7 |
| 20260510091804 | 60 | 272 | 0.0 | 2.0 | 0.00 | 0.00 | 0.00 | 93 | 1001.7 |
| 20260510091304 | 60 | 255 | 0.0 | 1.0 | 0.00 | 0.00 | 0.00 | 93 | 1001.5 |
| 20260510090304 | 60 | 323 | 0.0 | 2.0 | 0.00 | 0.00 | 0.00 | 91 | 1001.4 |
| 20260510085804 | 60 | 247 | 0.0 | 2.0 | 0.00 | 0.00 | 0.00 | 92 | 1001.4 |
| 20260510085306 | 60 | 91 | 0.0 | 2.0 | 0.00 | 0.00 | 0.00 | 91 | 1001.3 |
| 20260510084304 | 60 | 108 | 0.0 | 2.0 | 0.00 | 0.00 | 0.00 | 91 | 1001.3 |
| 20260510083804 | 60 | 91 | 0.0 | 2.0 | 0.00 | 0.00 | 0.00 | 91 | 1001.4 |
| 20260510083303 | 60 | 14 | 0.0 | 1.0 | 0.00 | 0.00 | 0.00 | 90 | 1001.4 |
| 20260510082804 | 60 | 227 | 0.0 | 1.0 | 0.00 | 0.00 | 0.00 | 89 | 1001.4 |
| 20260510082307 | 60 | 86 | 0.0 | 1.0 | 0.00 | 0.00 | 0.00 | 89 | 1001.4 |
| 20260510081305 | 60 | 88 | 0.0 | 1.0 | 0.00 | 0.00 | 0.00 | 88 | 1001.3 |
| 20260510080804 | 60 | 162 | 0.0 | 1.0 | 0.00 | 0.00 | 0.00 | 86 | 1001.2 |
| 20260510080304 | 61 | 104 | 0.0 | 1.0 | 0.00 | 0.00 | 0.00 | 86 | 1001.2 |
| 20260510075306 | 61 | 232 | 0.0 | 1.0 | 0.00 | 0.00 | 0.00 | 85 | 1001.1 |
| 20260510074304 | 61 | 137 | 0.0 | 2.0 | 0.00 | 0.00 | 0.00 | 84 | 1001.2 |
| 20260510073804 | 61 | 99 | 1.0 | 2.0 | 0.00 | 0.00 | 0.00 | 84 | 1001.2 |
| 20260510073305 | 61 | 128 | 0.0 | 1.0 | 0.00 | 0.00 | 0.00 | 83 | 1001.3 |
| 20260510072806 | 61 | 103 | 1.0 | 2.0 | 0.00 | 0.00 | 0.00 | 82 | 1001.3 |
| 20260510072306 | 61 | 120 | 0.0 | 2.0 | 0.00 | 0.00 | 0.00 | 81 | 1001.2 |
| 20260510071304 | 61 | 117 | 0.0 | 2.0 | 0.00 | 0.00 | 0.00 | 81 | 1001.2 |
| 20260510065306 | 61 | 98 | 0.0 | 2.0 | 0.00 | 0.00 | 0.00 | 78 | 1001.3 |
| 20260510064304 | 60 | 137 | 0.0 | 1.0 | 0.00 | 0.00 | 0.00 | 78 | 1001.2 |
| 20260510060803 | 61 | 210 | 0.0 | 2.0 | 0.00 | 0.00 | 0.00 | 79 | 1000.7 |
| 20260510054803 | 61 | 93 | 0.0 | 1.0 | 0.00 | 0.00 | 0.00 | 77 | 1000.7 |
| 20260510054304 | 61 | 69 | 0.0 | 1.0 | 0.00 | 0.00 | 0.00 | 77 | 1000.8 |
| 20260510052804 | 62 | 193 | 1.0 | 2.0 | 0.00 | 0.00 | 0.00 | 79 | 1000.8 |
| 20260510052306 | 62 | 51 | 0.0 | 1.0 | 0.00 | 0.00 | 0.00 | 76 | 1000.7 |
| 20260510051304 | 62 | 10 | 1.0 | 2.0 | 0.00 | 0.00 | 0.00 | 75 | 1000.7 |
| 20260510050804 | 62 | 20 | 1.0 | 2.0 | 0.00 | 0.00 | 0.00 | 76 | 1000.6 |
| 20260510050304 | 62 | 113 | 1.0 | 2.0 | 0.00 | 0.00 | 0.00 | 76 | 1000.6 |
| 20260510045804 | 62 | 297 | 0.0 | 2.0 | 0.00 | 0.00 | 0.00 | 74 | 1000.6 |
| 20260510045306 | 63 | 210 | 0.0 | 2.0 | 0.00 | 0.00 | 0.00 | 74 | 1000.6 |
| 20260510044304 | 63 | 91 | 0.0 | 1.0 | 0.00 | 0.00 | 0.00 | 76 | 1000.6 |
| 20260510043804 | 63 | 35 | 0.0 | 1.0 | 0.00 | 0.00 | 0.00 | 75 | 1000.6 |
| 20260510042804 | 63 | 249 | 0.0 | 1.0 | 0.00 | 0.00 | 0.00 | 74 | 1000.6 |
| 20260510040805 | 64 | 116 | 0.0 | 1.0 | 0.00 | 0.00 | 0.00 | 74 | 1000.7 |
| 20260510035306 | 64 | 12 | 0.0 | 1.0 | 0.00 | 0.00 | 0.00 | 74 | 1000.8 |
| 20260510034302 | 65 | 124 | 1.0 | 2.0 | 0.00 | 0.00 | 0.00 | 72 | 1000.7 |
| 20260510033303 | 65 | 90 | 1.0 | 3.0 | 0.00 | 0.00 | 0.00 | 70 | 1000.8 |
| 20260510032803 | 65 | 169 | 1.0 | 5.0 | 0.00 | 0.00 | 0.00 | 69 | 1000.8 |
| 20260510031302 | 65 | 104 | 0.0 | 2.0 | 0.00 | 0.00 | 0.00 | 70 | 1000.7 |
| 20260510030303 | 65 | 272 | 1.0 | 2.0 | 0.00 | 0.00 | 0.00 | 68 | 1000.7 |
| 20260510025803 | 65 | 176 | 3.0 | 3.0 | 0.00 | 0.00 | 0.00 | 68 | 1000.7 |
| 20260510024802 | 66 | 130 | 0.0 | 3.0 | 0.00 | 0.00 | 0.00 | 66 | 1000.6 |
| 20260510024302 | 66 | 21 | 1.0 | 3.0 | 0.00 | 0.00 | 0.00 | 63 | 1000.5 |
| 20260510023803 | 66 | 357 | 0.0 | 3.0 | 0.00 | 0.00 | 0.00 | 64 | 1000.5 |
| 20260510023302 | 67 | 318 | 0.0 | 1.0 | 0.00 | 0.00 | 0.00 | 63 | 1000.5 |
| 20260510021803 | 68 | 4 | 3.0 | 6.0 | 0.00 | 0.00 | 0.00 | 62 | 1000.3 |
| 20260510020303 | 69 | 334 | 1.0 | 5.0 | 0.00 | 0.00 | 0.00 | 57 | 1000.0 |
| 20260510015803 | 69 | 0 | 1.0 | 2.0 | 0.00 | 0.00 | 0.00 | 56 | 1000.0 |
| 20260510015306 | 69 | 46 | 1.0 | 1.0 | 0.00 | 0.00 | 0.00 | 56 | 999.9 |
| 20260510014802 | 69 | 44 | 1.0 | 1.0 | 0.00 | 0.00 | 0.00 | 56 | 999.8 |
| 20260510014303 | 70 | 44 | 1.0 | 1.0 | 0.00 | 0.00 | 0.00 | 56 | 999.7 |
| 20260510013303 | 70 | 45 | 1.0 | 3.0 | 0.00 | 0.00 | 0.00 | 58 | 999.6 |
| 20260510011803 | 71 | 43 | 1.0 | 3.0 | 0.00 | 0.00 | 0.00 | 53 | 999.4 |
| 20260510011303 | 72 | 11 | 1.0 | 2.0 | 0.00 | 0.00 | 0.00 | 53 | 999.3 |
| 20260510010802 | 72 | 275 | 1.0 | 3.0 | 0.00 | 0.00 | 0.00 | 52 | 999.2 |
| 20260510005802 | 73 | 221 | 1.0 | 5.0 | 0.00 | 0.00 | 0.00 | 51 | 999.1 |
| 20260510005306 | 73 | 247 | 1.0 | 3.0 | 0.00 | 0.00 | 0.00 | 49 | 999.0 |
| 20260510004803 | 74 | 306 | 1.0 | 3.0 | 0.00 | 0.00 | 0.00 | 48 | 998.9 |
| 20260510003803 | 74 | 323 | 1.0 | 3.0 | 0.00 | 0.00 | 0.00 | 47 | 998.8 |
| 20260510002803 | 75 | 282 | 1.0 | 2.0 | 0.00 | 0.00 | 0.00 | 45 | 998.7 |
| 20260510002306 | 76 | 284 | 1.0 | 2.0 | 0.00 | 0.00 | 0.00 | 44 | 998.6 |
| 20260510001303 | 76 | 298 | 1.0 | 2.0 | 0.00 | 0.00 | 0.00 | 43 | 998.6 |
| 20260510000304 | 78 | 173 | 0.0 | 1.0 | 0.00 | 0.00 | 0.00 | 42 | 998.4 |
| 20260509232803 | 81 | 316 | 1.0 | 3.0 | 0.00 | 0.00 | 0.00 | 37 | 998.1 |
| 20260509232306 | 81 | 316 | 1.0 | 3.0 | 0.00 | 0.00 | 0.00 | 37 | 998.1 |
| 20260509231304 | 82 | 317 | 3.0 | 6.0 | 0.00 | 0.00 | 0.00 | 34 | 998.1 |
| 20260509230302 | 83 | 135 | 2.0 | 7.0 | 0.00 | 0.00 | 0.00 | 32 | 998.1 |
| 20260509225803 | 83 | 303 | 2.0 | 10.0 | 0.00 | 0.00 | 0.00 | 34 | 998.1 |
| 20260509225305 | 84 | 314 | 2.0 | 10.0 | 0.00 | 0.00 | 0.00 | 32 | 998.0 |
| 20260509223304 | 85 | 284 | 1.0 | 6.0 | 0.00 | 0.00 | 0.00 | 32 | 997.9 |
| 20260509222803 | 85 | 313 | 4.0 | 10.0 | 0.00 | 0.00 | 0.00 | 31 | 997.9 |
| 20260509222306 | 85 | 345 | 3.0 | 7.0 | 0.00 | 0.00 | 0.00 | 32 | 997.9 |
| 20260509221804 | 85 | 339 | 2.0 | 12.0 | 0.00 | 0.00 | 0.00 | 32 | 998.0 |
| 20260509221303 | 85 | 301 | 2.0 | 7.0 | 0.00 | 0.00 | 0.00 | 32 | 998.1 |
| 20260509220803 | 85 | 315 | 3.0 | 7.0 | 0.00 | 0.00 | 0.00 | 31 | 998.1 |
| 20260509213303 | 84 | 280 | 2.0 | 7.0 | 0.00 | 0.00 | 0.00 | 34 | 998.1 |
| 20260509210803 | 84 | 317 | 5.0 | 7.0 | 0.00 | 0.00 | 0.00 | 32 | 998.3 |
| 20260509210303 | 84 | 317 | 3.0 | 7.0 | 0.00 | 0.00 | 0.00 | 35 | 998.3 |
| 20260509204804 | 86 | 316 | 4.0 | 9.0 | 0.00 | 0.00 | 0.00 | 34 | 998.4 |
| 20260509204303 | 87 | 346 | 2.0 | 3.0 | 0.00 | 0.00 | 0.00 | 31 | 998.4 |
| 20260509203804 | 87 | 319 | 2.0 | 3.0 | 0.00 | 0.00 | 0.00 | 32 | 998.4 |
| 20260509202802 | 87 | 315 | 1.0 | 3.0 | 0.00 | 0.00 | 0.00 | 33 | 998.4 |
| 20260509195803 | 85 | 109 | 3.0 | 6.0 | 0.00 | 0.00 | 0.00 | 33 | 998.6 |
| 20260509194804 | 84 | 317 | 4.0 | 7.0 | 0.00 | 0.00 | 0.00 | 34 | 998.7 |
| 20260509193303 | 86 | 318 | 4.0 | 7.0 | 0.00 | 0.00 | 0.00 | 34 | 998.8 |
| 20260509192803 | 85 | 131 | 3.0 | 7.0 | 0.00 | 0.00 | 0.00 | 37 | 998.7 |
| 20260509192306 | 85 | 115 | 3.0 | 6.0 | 0.00 | 0.00 | 0.00 | 37 | 998.7 |
| 20260509191803 | 84 | 129 | 2.0 | 8.0 | 0.00 | 0.00 | 0.00 | 37 | 998.8 |
| 20260509191302 | 84 | 184 | 2.0 | 13.0 | 0.00 | 0.00 | 0.00 | 39 | 998.8 |
| 20260509190303 | 84 | 123 | 2.0 | 7.0 | 0.00 | 0.00 | 0.00 | 37 | 998.9 |
| 20260509185306 | 82 | 299 | 4.0 | 12.0 | 0.00 | 0.00 | 0.00 | 42 | 998.9 |
| 20260509183303 | 83 | 127 | 5.0 | 14.0 | 0.00 | 0.00 | 0.00 | 38 | 999.1 |
| 20260509182804 | 82 | 292 | 2.0 | 8.0 | 0.00 | 0.00 | 0.00 | 41 | 999.0 |
| 20260509182306 | 83 | 331 | 3.0 | 8.0 | 0.00 | 0.00 | 0.00 | 42 | 999.1 |
| 20260509181303 | 82 | 317 | 2.0 | 6.0 | 0.00 | 0.00 | 0.00 | 43 | 999.1 |
| 20260509180803 | 81 | 315 | 3.0 | 7.0 | 0.00 | 0.00 | 0.00 | 41 | 999.3 |
| 20260509180304 | 80 | 130 | 3.0 | 6.0 | 0.00 | 0.00 | 0.00 | 44 | 999.3 |
| 20260509174803 | 80 | 316 | 3.0 | 8.0 | 0.00 | 0.00 | 0.00 | 43 | 999.3 |
| 20260509174304 | 80 | 319 | 5.0 | 7.0 | 0.00 | 0.00 | 0.00 | 45 | 999.4 |
| 20260509173803 | 80 | 316 | 3.0 | 5.0 | 0.00 | 0.00 | 0.00 | 45 | 999.4 |
| 20260509173304 | 81 | 317 | 2.0 | 9.0 | 0.00 | 0.00 | 0.00 | 45 | 999.4 |
| 20260509172803 | 81 | 333 | 3.0 | 9.0 | 0.00 | 0.00 | 0.00 | 42 | 999.4 |
| 20260509171803 | 80 | 120 | 3.0 | 8.0 | 0.00 | 0.00 | 0.00 | 48 | 999.3 |
| 20260509170803 | 79 | 232 | 2.0 | 7.0 | 0.00 | 0.00 | 0.00 | 46 | 999.4 |
| 20260509170302 | 78 | 107 | 2.0 | 7.0 | 0.00 | 0.00 | 0.00 | 51 | 999.4 |
| 20260509165306 | 78 | 297 | 3.0 | 7.0 | 0.00 | 0.00 | 0.00 | 52 | 999.4 |
| 20260509163302 | 78 | 17 | 2.0 | 8.0 | 0.00 | 0.00 | 0.00 | 48 | 999.5 |
| 20260509162803 | 78 | 264 | 2.0 | 6.0 | 0.00 | 0.00 | 0.00 | 52 | 999.5 |
| 20260509162307 | 78 | 321 | 2.0 | 5.0 | 0.00 | 0.00 | 0.00 | 51 | 999.4 |
| 20260509161803 | 78 | 111 | 1.0 | 5.0 | 0.00 | 0.00 | 0.00 | 51 | 999.4 |
| 20260509160803 | 77 | 79 | 1.0 | 6.0 | 0.00 | 0.00 | 0.00 | 54 | 999.3 |
| 20260509160303 | 76 | 315 | 2.0 | 6.0 | 0.00 | 0.00 | 0.00 | 55 | 999.2 |
| 20260509155803 | 76 | 0 | 3.0 | 6.0 | 0.00 | 0.00 | 0.00 | 55 | 999.2 |
| 20260509154303 | 76 | 226 | 1.0 | 3.0 | 0.00 | 0.00 | 0.00 | 57 | 999.1 |
| 20260509153803 | 75 | 229 | 2.0 | 5.0 | 0.00 | 0.00 | 0.00 | 57 | 999.0 |
| 20260509152803 | 74 | 308 | 2.0 | 6.0 | 0.00 | 0.00 | 0.00 | 62 | 999.0 |
| 20260509152305 | 74 | 313 | 2.0 | 7.0 | 0.00 | 0.00 | 0.00 | 61 | 999.0 |
| 20260509142804 | 71 | 305 | 2.0 | 6.0 | 0.00 | 0.00 | 0.00 | 67 | 999.3 |
| 20260509142306 | 71 | 324 | 2.0 | 6.0 | 0.00 | 0.00 | 0.00 | 70 | 999.2 |
| 20260509141803 | 70 | 320 | 1.0 | 5.0 | 0.00 | 0.00 | 0.00 | 71 | 999.2 |
| 20260509141303 | 70 | 334 | 2.0 | 6.0 | 0.00 | 0.00 | 0.00 | 70 | 999.3 |
| 20260509140803 | 69 | 339 | 2.0 | 5.0 | 0.00 | 0.00 | 0.00 | 71 | 999.1 |
| 20260509140302 | 69 | 339 | 2.0 | 5.0 | 0.00 | 0.00 | 0.00 | 72 | 999.1 |
| 20260509135306 | 68 | 38 | 2.0 | 7.0 | 0.00 | 0.00 | 0.00 | 74 | 999.0 |
| 20260509134804 | 68 | 336 | 2.0 | 3.0 | 0.00 | 0.00 | 0.00 | 77 | 999.0 |
| 20260509134303 | 67 | 296 | 1.0 | 8.0 | 0.00 | 0.00 | 0.00 | 78 | 999.0 |
| 20260509133803 | 67 | 99 | 3.0 | 8.0 | 0.00 | 0.00 | 0.00 | 79 | 999.0 |
| 20260509133304 | 66 | 353 | 1.0 | 6.0 | 0.00 | 0.00 | 0.00 | 79 | 999.0 |
| 20260509132803 | 66 | 344 | 1.0 | 6.0 | 0.00 | 0.00 | 0.00 | 80 | 999.0 |
| 20260509131303 | 64 | 341 | 1.0 | 3.0 | 0.00 | 0.00 | 0.00 | 84 | 998.9 |